Flight Track Log - Related Links

Times and Time Zones

All times are in EDT time to prevent confusion due to time zone crossing. See the SWA2966 flight status page for this flight to view local times or setup timezone preferences in your user account.

Time Position Orientation Groundspeed Altitude Reporting Facility
EDT Latitude Longitude Course Direction KTS MPH feet Rate Location/Type
Sat 08:46:53 AM 41.3108 -95.9094 316° Northwest 149 171 1,400  Level Minneapolis Center
Sat 08:47:47 AM 41.3428 -95.9500 316° Northwest 204 235 3,100 2,301 Climbing Minneapolis Center
Sat 08:48:06 AM 41.3475 -95.9683 289° West 216 249 4,200 2,262 Climbing Minneapolis Center
Sat 08:48:48 AM 41.3544 -96.0319 278° West 240 276 5,400 1,770 Climbing Minneapolis Center
Sat 08:49:07 AM 41.3600 -96.0461 298° West 224 258 6,000 3,000 Climbing Minneapolis Center
Sat 08:50:08 AM 41.3758 -96.1397 283° West 245 282 9,400 2,634 Climbing Minneapolis Center
Sat 08:51:10 AM 41.3878 -96.2400 279° West 260 299 11,400 2,585 Climbing Minneapolis Center
Sat 08:52:11 AM 41.3894 -96.3619 271° West 309 356 14,700 3,197 Climbing Minneapolis Center
Sat 08:53:12 AM 41.3894 -96.4864 270° West 330 380 17,900 3,197 Climbing Minneapolis Center
Sat 08:54:13 AM 41.3700 -96.6419 261° West 351 404 21,200 2,803 Climbing Minneapolis Center
Sat 08:55:14 AM 41.3525 -96.7772 260° West 365 420 23,600 2,311 Climbing Minneapolis Center
Sat 08:56:15 AM 41.3350 -96.9181 261° West 379 436 25,900 2,115 Climbing Minneapolis Center
Sat 08:57:16 AM 41.3164 -97.0628 260° West 390 449 27,900 1,721 Climbing Minneapolis Center
Sat 08:58:17 AM 41.2961 -97.2131 260° West 400 460 29,400 1,721 Climbing Minneapolis Center
Sat 08:59:18 AM 41.2747 -97.3658 259° West 411 473 31,400 2,016 Climbing Minneapolis Center
Sat 09:00:19 AM 41.2550 -97.5158 260° West 413 475 33,500 1,869 Climbing Minneapolis Center
Sat 09:01:20 AM 41.2353 -97.6628 260° West 411 473 35,200 1,525 Climbing Minneapolis Center
Sat 09:02:21 AM 41.2153 -97.8108 260° West 410 472 36,600 1,279 Climbing Minneapolis Center
Sat 09:03:22 AM 41.1947 -97.9586 260° West 410 472 37,800 689 Climbing Minneapolis Center
Sat 09:04:23 AM 41.1742 -98.1075 260° West 410 472 38,000 98 Climbing Minneapolis Center
Sat 09:05:24 AM 41.1533 -98.2558 259° West 409 471 38,000  Level Minneapolis Center
Sat 09:06:25 AM 41.1325 -98.4039 259° West 409 471 38,000  Level Minneapolis Center
Sat 09:07:26 AM 41.1072 -98.5767 259° West 409 471 38,000  Level Minneapolis Center
Sat 09:08:27 AM 41.0858 -98.7228 259° West 408 470 38,000  Level Minneapolis Center
Sat 09:09:28 AM 41.0636 -98.8714 259° West 408 470 38,000  Level Minneapolis Center
Sat 09:10:29 AM 41.0422 -99.0181 259° West 409 471 38,000  Level Minneapolis Center
Sat 09:11:30 AM 41.0225 -99.1514 259° West 408 470 38,000  Level Minneapolis Center
Sat 09:12:31 AM 41.0017 -99.2986 259° West 408 470 38,000  Level Minneapolis Center
Sat 09:13:32 AM 40.9789 -99.4453 258° West 408 470 38,000  Level Minneapolis Center
Sat 09:14:33 AM 40.9522 -99.6217 259° West 408 470 38,000  Level Minneapolis Center
Sat 09:15:34 AM 40.9300 -99.7697 259° West 408 470 38,000  Level Minneapolis Center
Sat 09:16:35 AM 40.9058 -99.9186 258° West 409 471 38,000  Level Minneapolis Center
Sat 09:17:36 AM 40.8828 -100.0656 258° West 409 471 38,000  Level Minneapolis Center
Sat 09:18:37 AM 40.8597 -100.2142 258° West 409 471 38,000  Level Minneapolis Center
Sat 09:19:38 AM 40.8356 -100.3600 258° West 409 471 38,000  Level Minneapolis Center
Sat 09:20:39 AM 40.8117 -100.5072 258° West 409 471 38,000  Level Minneapolis Center
Sat 09:22:03 AM 40.7783 -100.6989 257° West 408 470 38,000  Level Denver Center
Sat 09:23:04 AM 40.7511 -100.8689 258° West 411 473 38,000  Level Denver Center
Sat 09:24:04 AM 40.7283 -101.0092 258° West 409 471 38,000  Level Denver Center
Sat 09:25:05 AM 40.7039 -101.1497 257° West 409 471 38,000  Level Denver Center
Sat 09:26:06 AM 40.6758 -101.3131 257° West 410 472 38,000  Level Denver Center
Sat 09:27:07 AM 40.6511 -101.4536 257° West 410 472 38,000  Level Denver Center
Sat 09:28:07 AM 40.6264 -101.5942 257° West 410 472 38,000  Level Denver Center
Sat 09:29:08 AM 40.5967 -101.7561 256° West 410 472 38,000  Level Denver Center
Sat 09:30:09 AM 40.5703 -101.8944 256° West 409 471 38,000  Level Denver Center
Sat 09:31:10 AM 40.5456 -102.0344 257° West 409 471 38,000  Level Denver Center
Sat 09:32:10 AM 40.5156 -102.1975 256° West 410 472 38,000  Level Denver Center
Sat 09:33:11 AM 40.4903 -102.3369 257° West 410 472 38,000  Level Denver Center
Sat 09:34:12 AM 40.4644 -102.4767 256° West 411 473 38,000 -443 Level Denver Center
Sat 09:35:13 AM 40.4333 -102.6383 256° West 410 472 37,100 -1,587 Descending Denver Center
Sat 09:36:13 AM 40.4097 -102.7694 257° West 405 466 34,800 -2,579 Descending Denver Center
Sat 09:37:14 AM 40.3808 -102.9142 255° West 407 468 31,900 -2,557 Descending Denver Center
Sat 09:38:15 AM 40.3539 -103.0642 257° West 421 484 29,600 -2,213 Descending Denver Center
Sat 09:39:16 AM 40.3258 -103.2114 256° West 418 481 27,400 -2,164 Descending Denver Center
Sat 09:40:17 AM 40.2994 -103.3483 256° West 393 452 25,200 -2,132 Descending Denver Center
Sat 09:41:17 AM 40.2731 -103.4803 255° West 379 436 23,100 -1,983 Descending Denver Center
Sat 09:42:18 AM 40.2494 -103.6058 256° West 364 419 21,200 -1,820 Descending Denver Center
Sat 09:43:19 AM 40.2225 -103.7414 255° West 339 390 19,400 -1,426 Descending Denver Center
Sat 09:44:20 AM 40.2017 -103.8575 257° West 332 382 18,300 -1,279 Descending Denver Center
Sat 09:45:21 AM 40.2097 -103.9669 276° West 304 350 16,800 -1,475 Descending Denver Center
Sat 09:46:22 AM 40.2219 -104.0739 279° West 302 348 15,300 -1,525 Descending Denver Center
Sat 09:47:23 AM 40.2311 -104.1833 276° West 287 330 13,700 -1,475 Descending Denver Center
Sat 09:48:24 AM 40.2383 -104.2847 275° West 283 326 12,300 -1,475 Descending Denver Center
Sat 09:49:25 AM 40.2056 -104.3736 244° Southwest 271 312 10,700 -1,525 Descending Denver Center
Sat 09:50:26 AM 40.1739 -104.4647 246° West 275 316 9,200 -836 Descending Denver Center
Sat 09:51:27 AM 40.1467 -104.5583 249° West 257 296 9,000 -545 Descending Denver Center
Sat 09:52:27 AM 40.1178 -104.6322 243° Southwest 243 280 8,100 -645 Descending Denver Center
Sat 09:53:28 AM 40.0586 -104.6722 207° Southwest 241 277 7,700 -541 Descending Denver Center
Sat 09:54:29 AM 40.0014 -104.6858 190° South 210 242 7,000 -585 Descending Denver Center
Sat 09:55:31 AM 39.9497 -104.6861 180° South 174 200 6,500 -634 Descending Denver Center
Sat 09:56:32 AM 39.9097 -104.6872 181° South 148 170 5,700 -541 Descending Denver Center
Sat 09:57:33 AM 39.8775 -104.6872 180° South 126 145 5,400 -295 Descending Denver Center
Sat 09:59:00 AM 39.8617 -104.6732 North  Level Estimated
Sat 10:06:00 AM 39.8617 -104.6732 North  Level Estimated
Sat 10:07:00 AM 39.8617 -104.6732 North  Level Estimated

Login

Don't have an account? Register now (free) for customized features, flight alerts, and more!